Nearby METAR Reports


RPLC - Angeles/Pampanga, Philippines
Distance from station: S 166km
Updated: Fri, 20-Oct-2017 9:00pm PHT
Mostly cloudy
Mostly cloudy
 Wind from NE
Wind: NE 2 km/h
Temperature: 28°C
Heat Index: 32°C
Dew Point: 24°C
Humidity: 79%
Barometer: 1008 hPa
Clouds: Mostly cloudy
Visibility: 10 km
Cloud details: Partly cloudy 610 m
Mostly cloudy 3048 m
2017/10/20 13:00 RPLC 201300Z 05001KT 9999 SCT020 BKN100 28/24 Q1008 NOSIG RMK A2977
RPLI - Laoag Intl Airport, Philippines
Distance from station: N 171km
Updated: Fri, 20-Oct-2017 8:00pm PHT
NOT Current
Mostly cloudy
Mostly cloudy
 Wind from ENE
Wind: ENE 7 km/h
Temperature: 26°C
Dew Point: 25°C
Humidity: 94%
Barometer: 1006 hPa
Clouds: Mostly cloudy
Visibility: 8 km
Cloud details: Partly cloudy 579 m
Mostly cloudy 3048 m
2017/10/20 12:00 RPLI 201200Z 06004KT 8000 SCT019 BKN100 26/25 Q1006 RERA RMK A2971
 
RPLB - Olongapo/Subic, Philippines
Distance from station: S 205km
Updated: Fri, 20-Oct-2017 9:00pm PHT
Mostly cloudy
Mostly cloudy
 Wind from varies
Wind: varies 2 km/h
Temperature: 28°C
Heat Index: 32°C
Dew Point: 25°C
Humidity: 84%
Barometer: 1004 hPa
Clouds: Mostly cloudy
Visibility: 10 km
Cloud details: Few Clouds 610 m
Mostly cloudy 9144 m
2017/10/20 13:00 RPLB 201300Z VRB01KT 9999 FEW020 BKN300 28/25 Q1004 NOSIG RMK A2965
RPLL - Ninoy Aquino Intl Airport, Philippines
Distance from station: SSE 247km
Updated: Fri, 20-Oct-2017 9:00pm PHT
Mostly cloudy
Mostly cloudy
 Wind from SW
Wind: SW 6 km/h
Temperature: 28°C
Heat Index: 34°C
Dew Point: 27°C
Humidity: 94%
Barometer: 1006 hPa
Clouds: Mostly cloudy
Visibility: 10 km
Cloud details: Few Clouds 762 m
Mostly cloudy 9144 m
2017/10/20 13:00 RPLL 201300Z 22003KT 190V260 9999 FEW025 BKN300 28/27 Q1006 NOSIG RMK A2971